In Rescue
 
Open Full Screen Window  High Contrast Mode
Wind Gusting 19 knots
14
November 29, 2022 9:26 AM CST
Weather Information
Wind Direction
  310 °
Wind Speed
  14 kt (16 mph)
Wind Gust
  19 kt (22 mph)
Altimeter
29.79 in
Visibility
10 SM
Temperature
-04° C
25° F
Dewpoint
-11° C
12° F
Humidity
59%
1hr Rain Fall
00.00 in.
24hr Rain Fall
00.00 in.
Sky Condition
Clear
VFR

METAR KDXX 291526Z AUTO 31014G19KT 10SM CLR M04/M11 A2979 RMK AO2

FAA Disclaimer: The data displayed is for advisory purposes only and is not to be used for flight planning or operations.